Time;durP1;ratioP1;P1;durP2;ratioP2;P2;SDS_P1;SDS_P2;PMS_P1;PMS_P2;Temp;Humidity;BMP_temperature;BMP_pressure;BME280_temperature;BME280_humidity;BME280_pressure;Samples;Min_cycle;Max_cycle;Signal;HPM_P1;HPM_P2
2023/08/14 00:01:31;;;;;;;17.67;11.93;;;13.60;99.90;;;;;;5014276;28;20185;-68
2023/08/14 00:03:58;;;;;;;18.90;12.47;;;13.80;99.90;;;;;;5014317;28;20220;-68
2023/08/14 00:06:26;;;;;;;16.63;11.00;;;13.90;99.90;;;;;;5014292;28;20209;-68
2023/08/14 00:08:53;;;;;;;17.17;11.73;;;14.00;99.90;;;;;;5011377;28;20208;-68
2023/08/14 00:11:20;;;;;;;13.80;9.97;;;14.00;99.90;;;;;;4994760;28;20235;-68
2023/08/14 00:13:55;;;;;;;15.47;9.63;;;14.10;99.90;;;;;;5010598;28;20174;-68
2023/08/14 00:16:24;;;;;;;12.50;9.10;;;14.10;99.90;;;;;;5014382;28;20189;-68
2023/08/14 00:18:53;;;;;;;10.77;8.43;;;14.20;99.90;;;;;;4998261;28;20177;-67
2023/08/14 00:21:20;;;;;;;13.57;9.33;;;14.20;99.90;;;;;;4994045;28;20230;-67
2023/08/14 00:23:48;;;;;;;12.60;9.47;;;14.30;99.90;;;;;;4993899;28;20727;-68
2023/08/14 00:26:15;;;;;;;18.87;12.07;;;14.30;99.90;;;;;;4994475;28;20235;-68
2023/08/14 00:28:43;;;;;;;18.57;12.10;;;14.30;99.90;;;;;;4994184;28;20206;-67
2023/08/14 00:31:10;;;;;;;17.63;13.03;;;14.40;99.90;;;;;;4994191;28;20166;-68
2023/08/14 00:33:37;;;;;;;17.30;12.53;;;14.40;99.90;;;;;;4994320;28;20175;-68
2023/08/14 00:36:08;;;;;;;18.50;12.77;;;14.60;99.90;;;;;;4993488;28;20240;-68
2023/08/14 00:38:35;;;;;;;16.57;12.00;;;14.70;99.90;;;;;;4993430;28;20183;-67
2023/08/14 00:41:03;;;;;;;18.37;12.27;;;15.10;99.90;;;;;;4974673;28;20190;-67
2023/08/14 00:43:30;;;;;;;16.73;13.07;;;15.30;99.90;;;;;;4990916;28;20206;-70
2023/08/14 00:45:58;;;;;;;16.87;13.13;;;15.50;99.90;;;;;;4992731;28;20171;-71
2023/08/14 00:48:26;;;;;;;15.57;11.93;;;15.50;99.90;;;;;;4994288;28;20233;-70
2023/08/14 00:50:54;;;;;;;16.30;12.13;;;15.50;99.90;;;;;;4994142;28;20185;-70
2023/08/14 00:53:27;;;;;;;19.47;12.97;;;15.50;99.90;;;;;;4993981;28;20537;-70
2023/08/14 00:55:55;;;;;;;16.10;11.87;;;15.50;99.90;;;;;;4993977;28;20229;-70
2023/08/14 00:58:23;;;;;;;15.13;11.43;;;15.50;99.90;;;;;;4993964;28;20175;-70
2023/08/14 01:00:51;;;;;;;17.00;11.93;;;15.40;99.90;;;;;;4976382;28;20520;-70
2023/08/14 01:03:20;;;;;;;16.17;10.73;;;15.40;99.90;;;;;;4993921;28;20297;-71
2023/08/14 01:05:47;;;;;;;14.33;9.13;;;15.40;99.90;;;;;;4993897;28;20185;-70
2023/08/14 01:08:15;;;;;;;12.07;8.57;;;15.60;99.90;;;;;;4993944;28;20175;-71
2023/08/14 01:11:23;;;;;;;12.27;8.43;;;15.60;99.90;;;;;;4993924;28;20179;-71
2023/08/14 01:14:16;;;;;;;12.50;8.40;;;15.80;99.90;;;;;;4915149;29;20220;-71
2023/08/14 01:16:55;;;;;;;9.73;7.20;;;16.00;99.90;;;;;;4907776;29;20225;-70
2023/08/14 01:19:37;;;;;;;8.17;6.23;;;16.30;99.90;;;;;;4973056;28;20245;-71
2023/08/14 01:22:30;;;;;;;11.80;6.57;;;16.40;99.90;;;;;;4993422;28;20230;-71
2023/08/14 01:25:00;;;;;;;12.90;7.87;;;16.40;99.90;;;;;;4993942;28;20184;-71
2023/08/14 01:27:28;;;;;;;12.77;8.80;;;16.30;99.90;;;;;;4993616;28;20177;-71
2023/08/14 01:29:59;;;;;;;12.43;10.00;;;16.20;99.90;;;;;;4993611;28;20240;-70
2023/08/14 01:32:27;;;;;;;11.20;7.93;;;15.90;99.90;;;;;;4993388;28;20182;-71
2023/08/14 01:34:56;;;;;;;10.40;8.50;;;15.90;99.90;;;;;;4995863;28;20265;-70
2023/08/14 01:37:41;;;;;;;13.10;8.47;;;16.00;99.90;;;;;;4997699;28;20261;-71
2023/08/14 01:40:22;;;;;;;11.70;8.30;;;16.10;99.90;;;;;;4997360;28;20183;-70
2023/08/14 01:42:58;;;;;;;8.87;7.00;;;16.50;99.90;;;;;;4997547;28;20293;-70
2023/08/14 01:45:28;;;;;;;7.87;6.10;;;16.60;99.90;;;;;;4998178;28;20575;-71
2023/08/14 01:47:58;;;;;;;7.57;6.33;;;17.20;99.90;;;;;;4997370;28;20194;-71
2023/08/14 01:50:27;;;;;;;6.10;4.23;;;17.60;99.90;;;;;;4997343;28;20526;-71
2023/08/14 01:52:55;;;;;;;6.20;4.50;;;17.70;99.90;;;;;;4997331;28;20182;-69
2023/08/14 01:55:24;;;;;;;6.23;4.80;;;17.70;99.90;;;;;;4997401;28;20185;-71
2023/08/14 01:57:53;;;;;;;5.57;4.60;;;17.40;99.90;;;;;;4997198;28;20171;-71
2023/08/14 02:00:21;;;;;;;4.47;3.90;;;17.40;99.90;;;;;;4997282;28;20175;-70
2023/08/14 02:02:49;;;;;;;5.57;4.97;;;17.40;99.90;;;;;;4997199;28;20208;-70
2023/08/14 02:05:16;;;;;;;5.33;4.30;;;17.10;99.90;;;;;;4997080;28;20699;-70
2023/08/14 02:07:43;;;;;;;5.10;4.10;;;16.90;99.90;;;;;;4996991;28;20186;-70
2023/08/14 02:10:11;;;;;;;6.50;4.20;;;16.80;99.90;;;;;;4996976;28;20281;-70
2023/08/14 02:12:38;;;;;;;5.07;4.17;;;16.80;99.90;;;;;;4997001;28;20166;-69
2023/08/14 02:15:06;;;;;;;4.30;3.90;;;16.90;99.90;;;;;;4996826;28;20716;-71
2023/08/14 02:17:33;;;;;;;;;;;17.10;99.90;;;;;;4997128;28;20628;-71
2023/08/14 02:19:59;;;;;;;;;;;17.20;99.90;;;;;;4996460;28;25162;-70
2023/08/14 02:22:26;;;;;;;;;;;17.00;99.90;;;;;;4997061;28;20266;-70
2023/08/14 02:24:53;;;;;;;;;;;17.20;99.90;;;;;;4997299;28;19972;-71
2023/08/14 02:27:20;;;;;;;;;;;17.10;99.90;;;;;;4997109;28;19956;-70
2023/08/14 02:29:46;;;;;;;;;;;17.00;99.90;;;;;;4996916;28;20386;-70
2023/08/14 02:32:13;;;;;;;;;;;17.10;99.90;;;;;;4997254;28;19913;-70
2023/08/14 02:34:50;;;;;;;;;;;17.00;99.90;;;;;;4996811;28;19916;-70
2023/08/14 02:37:17;;;;;;;;;;;16.90;99.90;;;;;;4996694;28;19906;-71
2023/08/14 02:39:44;;;;;;;;;;;16.70;99.90;;;;;;4995725;28;19910;-70
2023/08/14 02:42:11;;;;;;;;;;;16.60;99.90;;;;;;4995592;28;19910;-69
2023/08/14 02:44:38;;;;;;;;;;;16.40;99.90;;;;;;4994290;28;19981;-70
2023/08/14 02:47:05;;;;;;;;;;;16.30;99.90;;;;;;4996088;28;20245;-69
2023/08/14 02:49:32;;;;;;;;;;;16.20;99.90;;;;;;4996163;28;20332;-69
2023/08/14 02:51:59;;;;;;;;;;;16.10;99.90;;;;;;4999299;28;19909;-70
2023/08/14 02:54:26;;;;;;;;;;;16.20;99.90;;;;;;4996610;28;19934;-70
2023/08/14 02:56:53;;;;;;;;;;;16.20;99.90;;;;;;4996000;28;19909;-69
2023/08/14 02:59:20;;;;;;;;;;;16.20;99.90;;;;;;4995924;28;19918;-69
2023/08/14 03:01:47;;;;;;;;;;;16.10;99.90;;;;;;4996207;28;20390;-70
2023/08/14 03:04:14;;;;;;;;;;;16.10;99.90;;;;;;4996526;28;19913;-70
2023/08/14 03:06:41;;;;;;;;;;;16.10;99.90;;;;;;4996172;28;19909;-69
2023/08/14 03:09:08;;;;;;;;;;;16.00;99.90;;;;;;4996364;28;19906;-69
2023/08/14 03:11:34;;;;;;;;;;;16.00;99.90;;;;;;4995916;28;19964;-69
2023/08/14 03:14:01;;;;;;;;;;;16.00;99.90;;;;;;4996244;28;19905;-69
2023/08/14 03:16:28;;;;;;;;;;;15.90;99.90;;;;;;4996388;28;19952;-69
2023/08/14 03:18:54;;;;;;;;;;;15.80;99.90;;;;;;4977716;28;20374;-69
2023/08/14 03:21:21;;;;;;;;;;;15.80;99.90;;;;;;4994396;28;24082;-70
2023/08/14 03:23:49;;;;;;;;;;;15.70;99.90;;;;;;4994993;28;19920;-69
2023/08/14 03:26:16;;;;;;;;;;;15.80;99.90;;;;;;4994509;28;19989;-70
2023/08/14 03:28:43;;;;;;;;;;;15.70;99.90;;;;;;4977380;28;19996;-70
2023/08/14 03:31:10;;;;;;;;;;;15.70;99.90;;;;;;4994150;28;20001;-70
2023/08/14 03:33:36;;;;;;;;;;;15.80;99.90;;;;;;5002337;28;19910;-70
2023/08/14 03:36:03;;;;;;;;;;;15.80;99.90;;;;;;4994281;28;19917;-69
2023/08/14 03:38:31;;;;;;;;;;;15.80;99.90;;;;;;4994626;28;19910;-69
2023/08/14 03:40:58;;;;;;;;;;;15.90;99.90;;;;;;4994392;28;20283;-70
2023/08/14 03:43:24;;;;;;;;;;;15.90;99.90;;;;;;4992705;28;20383;-68
2023/08/14 03:45:51;;;;;;;;;;;15.80;99.90;;;;;;4994758;28;20259;-69
2023/08/14 03:48:18;;;;;;;;;;;15.70;99.90;;;;;;4994464;28;19952;-69
2023/08/14 03:50:47;;;;;;;;;;;15.70;99.90;;;;;;4994228;28;24116;-69
2023/08/14 03:53:14;;;;;;;;;;;15.70;99.90;;;;;;4994151;28;19909;-70
2023/08/14 03:55:41;;;;;;;;;;;15.70;99.90;;;;;;4993743;28;19910;-69
2023/08/14 03:58:07;;;;;;;;;;;15.70;99.90;;;;;;4993362;28;19964;-70
2023/08/14 04:00:35;;;;;;;;;;;15.70;99.90;;;;;;4994030;28;20402;-69
2023/08/14 04:03:03;;;;;;;;;;;15.60;99.90;;;;;;4994214;28;24098;-69
2023/08/14 04:05:29;;;;;;;;;;;15.50;99.90;;;;;;4993921;28;20383;-69
2023/08/14 04:07:56;;;;;;;;;;;15.30;99.90;;;;;;4994017;28;19914;-69
2023/08/14 04:10:24;;;;;;;;;;;15.20;99.90;;;;;;4994124;28;19960;-69
2023/08/14 04:12:50;;;;;;;;;;;15.10;99.90;;;;;;4992601;28;19936;-70
2023/08/14 04:15:17;;;;;;;;;;;15.00;99.90;;;;;;4993356;28;19916;-69
2023/08/14 04:17:44;;;;;;;;;;;14.90;99.90;;;;;;4993794;28;19909;-69
2023/08/14 04:20:22;;;;;;;;;;;14.80;99.90;;;;;;5110171;27;19911;-69
2023/08/14 04:22:49;;;;;;;;;;;14.80;99.90;;;;;;5110421;28;19914;-69
2023/08/14 04:25:18;;;;;;;;;;;14.80;99.90;;;;;;5109674;28;19908;-70
2023/08/14 04:27:45;;;;;;;;;;;14.70;99.90;;;;;;5110949;28;19908;-70
2023/08/14 04:30:12;;;;;;;;;;;14.70;99.90;;;;;;5116876;28;19931;-69
2023/08/14 04:32:40;;;;;;;;;;;14.80;99.90;;;;;;5109783;27;19904;-70
2023/08/14 04:35:08;;;;;;;;;;;14.80;99.90;;;;;;5108476;28;20364;-69
2023/08/14 04:37:35;;;;;;;;;;;14.90;99.90;;;;;;5110570;28;19930;-70
2023/08/14 04:40:02;;;;;;;;;;;14.90;99.90;;;;;;5109901;28;19916;-70
2023/08/14 04:42:29;;;;;;;;;;;14.80;99.90;;;;;;5109678;28;19904;-69
2023/08/14 04:44:56;;;;;;;;;;;14.80;99.90;;;;;;5110663;28;19908;-70
2023/08/14 04:47:23;;;;;;;;;;;14.60;99.90;;;;;;5110075;28;20025;-69
2023/08/14 04:49:50;;;;;;;;;;;14.60;99.90;;;;;;5110351;28;20373;-70
2023/08/14 04:52:17;;;;;;;;;;;14.50;99.90;;;;;;5110158;28;19904;-70
2023/08/14 04:54:44;;;;;;;;;;;14.50;99.90;;;;;;5110932;28;20024;-70
2023/08/14 04:57:11;;;;;;;;;;;14.40;99.90;;;;;;5110971;28;19930;-70
2023/08/14 04:59:37;;;;;;;;;;;14.30;99.90;;;;;;5110693;28;20388;-70
2023/08/14 05:02:04;;;;;;;;;;;14.30;99.90;;;;;;5110669;28;19904;-71
2023/08/14 05:04:31;;;;;;;;;;;14.20;99.90;;;;;;5110711;28;19904;-70
2023/08/14 05:06:58;;;;;;;;;;;14.20;99.90;;;;;;5110881;28;20321;-70
2023/08/14 05:09:25;;;;;;;;;;;14.20;99.90;;;;;;5110654;28;19957;-70
2023/08/14 05:11:52;;;;;;;;;;;14.20;99.90;;;;;;5109348;28;19904;-70
2023/08/14 05:14:19;;;;;;;;;;;14.20;99.90;;;;;;5110530;28;19904;-70
2023/08/14 05:16:46;;;;;;;;;;;14.20;99.90;;;;;;5110796;28;19904;-69
2023/08/14 05:19:13;;;;;;;;;;;14.20;99.90;;;;;;5110366;28;20258;-70
2023/08/14 05:21:40;;;;;;;;;;;14.20;99.90;;;;;;5110433;28;20386;-73
2023/08/14 05:24:07;;;;;;;;;;;14.10;99.90;;;;;;5110248;28;19904;-73
2023/08/14 05:26:33;;;;;;;;;;;14.10;99.90;;;;;;5110411;28;19904;-73
2023/08/14 05:29:00;;;;;;;;;;;14.00;99.90;;;;;;5110230;28;19919;-72
2023/08/14 05:31:27;;;;;;;;;;;14.10;99.90;;;;;;5098090;28;20337;-73
2023/08/14 05:33:54;;;;;;;;;;;14.10;99.90;;;;;;5096784;28;20045;-72
2023/08/14 05:36:21;;;;;;;;;;;14.10;99.90;;;;;;5097328;28;19911;-70
2023/08/14 05:38:48;;;;;;;;;;;14.10;99.90;;;;;;5096451;28;19966;-71
2023/08/14 05:41:15;;;;;;;;;;;14.20;99.90;;;;;;5096280;28;19904;-71
2023/08/14 05:43:42;;;;;;;;;;;14.10;99.90;;;;;;5096528;28;19977;-72
2023/08/14 05:46:09;;;;;;;;;;;14.10;99.90;;;;;;5096551;28;19904;-71
2023/08/14 05:48:35;;;;;;;;;;;14.00;99.90;;;;;;5096216;28;19904;-72
2023/08/14 05:51:02;;;;;;;;;;;14.00;99.90;;;;;;5096416;28;19904;-71
2023/08/14 05:53:30;;;;;;;;;;;14.00;99.90;;;;;;5077949;28;19994;-71
2023/08/14 05:55:57;;;;;;;;;;;14.00;99.90;;;;;;5096211;28;19904;-69
2023/08/14 05:58:24;;;;;;;;;;;14.00;99.90;;;;;;5095996;28;19908;-71
2023/08/14 06:00:51;;;;;;;;;;;14.10;99.90;;;;;;5095943;28;19912;-71
2023/08/14 06:03:18;;;;;;;;;;;14.20;99.90;;;;;;5096104;28;19911;-71
2023/08/14 06:05:44;;;;;;;;;;;14.10;99.90;;;;;;5094796;28;19991;-70
2023/08/14 06:08:11;;;;;;;;;;;14.10;99.90;;;;;;5095908;28;19994;-71
2023/08/14 06:10:38;;;;;;;;;;;14.00;99.90;;;;;;5095997;28;19904;-69
2023/08/14 06:13:08;;;;;;;;;;;14.00;99.90;;;;;;5095949;28;19908;-69
2023/08/14 06:15:35;;;;;;;;;;;14.00;99.90;;;;;;5095709;28;19904;-69
2023/08/14 06:18:02;;;;;;;;;;;14.00;99.90;;;;;;5095447;28;19904;-69
2023/08/14 06:20:29;;;;;;;;;;;14.00;99.90;;;;;;5095580;28;20277;-69
2023/08/14 06:22:56;;;;;;;;;;;14.00;99.90;;;;;;5095759;28;19913;-69
2023/08/14 06:25:24;;;;;;;;;;;14.10;99.90;;;;;;5095630;28;20349;-71
2023/08/14 06:27:50;;;;;;;;;;;14.10;99.90;;;;;;5086270;28;20293;-68
2023/08/14 06:30:20;;;;;;;;;;;14.10;99.90;;;;;;5066710;28;19908;-67
2023/08/14 06:32:46;;;;;;;;;;;14.10;99.90;;;;;;5086926;28;19908;-69
2023/08/14 06:35:13;;;;;;;;;;;14.00;99.90;;;;;;5072774;28;19909;-67
2023/08/14 06:37:40;;;;;;;;;;;14.00;99.90;;;;;;5074032;28;19909;-68
2023/08/14 06:40:08;;;;;;;;;;;13.90;99.90;;;;;;5067597;28;19921;-68
2023/08/14 06:42:34;;;;;;;;;;;13.90;99.90;;;;;;5059595;28;20011;-70
2023/08/14 06:45:04;;;;;;;;;;;13.80;99.90;;;;;;5055427;28;19916;-68
2023/08/14 06:47:31;;;;;;;;;;;13.80;99.90;;;;;;5077729;28;20002;-68
2023/08/14 06:49:57;;;;;;;;;;;13.70;99.90;;;;;;5069264;28;19959;-68
2023/08/14 06:52:24;;;;;;;;;;;13.70;99.90;;;;;;5075602;28;19909;-67
2023/08/14 06:54:51;;;;;;;;;;;13.70;99.90;;;;;;5065019;28;20366;-67
2023/08/14 06:57:18;;;;;;;;;;;13.70;99.90;;;;;;5072734;28;20445;-67
2023/08/14 06:59:45;;;;;;;;;;;13.70;99.90;;;;;;5073312;28;19979;-68
2023/08/14 07:02:12;;;;;;;;;;;13.70;99.90;;;;;;5070973;28;20356;-67
2023/08/14 07:04:38;;;;;;;;;;;13.70;99.90;;;;;;5067898;28;19908;-68
2023/08/14 07:07:05;;;;;;;;;;;13.60;99.90;;;;;;5062511;28;19915;-68
2023/08/14 07:09:33;;;;;;;;;;;13.60;99.90;;;;;;5056633;28;19909;-68
2023/08/14 07:12:00;;;;;;;;;;;13.50;99.90;;;;;;5054609;28;19951;-68
2023/08/14 07:14:27;;;;;;;;;;;13.50;99.90;;;;;;5073565;28;19908;-69
2023/08/14 07:16:54;;;;;;;;;;;13.50;99.90;;;;;;5079002;28;19908;-70
2023/08/14 07:19:21;;;;;;;;;;;13.40;99.90;;;;;;5091513;28;19967;-68
2023/08/14 07:21:48;;;;;;;;;;;13.40;99.90;;;;;;5103139;28;19907;-69
2023/08/14 07:24:14;;;;;;;;;;;13.40;99.90;;;;;;5079122;28;19938;-67
2023/08/14 07:26:42;;;;;;;;;;;13.40;99.90;;;;;;5098837;28;20383;-74
2023/08/14 07:29:09;;;;;;;;;;;13.40;99.90;;;;;;5097689;28;19908;-69
2023/08/14 07:31:36;;;;;;;;;;;13.30;99.90;;;;;;5102689;28;20004;-67
2023/08/14 07:34:03;;;;;;;;;;;13.30;99.90;;;;;;5094932;28;20151;-67
2023/08/14 07:36:30;;;;;;;;;;;13.30;99.90;;;;;;5099972;28;19969;-68
2023/08/14 07:38:56;;;;;;;;;;;13.30;99.90;;;;;;5096360;28;20264;-68
2023/08/14 07:41:23;;;;;;;;;;;13.30;99.90;;;;;;5092869;28;19931;-68
2023/08/14 07:43:50;;;;;;;;;;;13.30;99.90;;;;;;5084849;28;19919;-66
2023/08/14 07:46:18;;;;;;;;;;;13.20;99.90;;;;;;5072041;28;19905;-67
2023/08/14 07:48:44;;;;;;;;;;;13.20;99.90;;;;;;5075767;28;20360;-66
2023/08/14 07:51:11;;;;;;;;;;;13.20;99.90;;;;;;5091830;28;19904;-67
2023/08/14 07:53:38;;;;;;;;;;;13.20;99.90;;;;;;5092090;28;19946;-69
2023/08/14 07:56:05;;;;;;;;;;;13.20;99.90;;;;;;5091567;28;20276;-67
2023/08/14 07:58:32;;;;;;;;;;;13.20;99.90;;;;;;5092047;28;19912;-68
2023/08/14 08:00:59;;;;;;;;;;;13.20;99.90;;;;;;5091666;28;19963;-68
2023/08/14 08:03:26;;;;;;;;;;;13.20;99.90;;;;;;5091415;28;20312;-69
2023/08/14 08:05:53;;;;;;;;;;;13.20;99.90;;;;;;5092002;28;19904;-68
2023/08/14 08:08:20;;;;;;;;;;;13.20;99.90;;;;;;5092233;28;19904;-68
2023/08/14 08:10:46;;;;;;;;;;;13.30;99.90;;;;;;5091596;28;20007;-68
2023/08/14 08:13:13;;;;;;;;;;;13.30;99.90;;;;;;5124298;27;19908;-67
2023/08/14 08:15:40;;;;;;;;;;;13.30;99.90;;;;;;5092145;28;19998;-67
2023/08/14 08:18:07;;;;;;;;;;;13.30;99.90;;;;;;5131707;27;19958;-70
2023/08/14 08:20:34;;;;;;;;;;;13.30;99.90;;;;;;5102019;28;19912;-67
2023/08/14 08:23:01;;;;;;;;;;;13.30;99.90;;;;;;5091675;28;19955;-65
2023/08/14 08:25:28;;;;;;;;;;;13.20;99.90;;;;;;5090323;28;19942;-71
2023/08/14 08:27:55;;;;;;;;;;;13.20;99.90;;;;;;5094323;28;19953;-70
2023/08/14 08:30:21;;;;;;;;;;;13.20;99.90;;;;;;5102477;28;19941;-67
2023/08/14 08:32:48;;;;;;;;;;;13.20;99.90;;;;;;5098082;28;19966;-70
2023/08/14 08:35:15;;;;;;;;;;;13.20;99.90;;;;;;5090881;28;19911;-68
2023/08/14 08:37:42;;;;;;;;;;;13.20;99.90;;;;;;5091451;28;19908;-69
2023/08/14 08:40:09;;;;;;;;;;;13.20;99.90;;;;;;5093008;28;19919;-68
2023/08/14 08:42:37;;;;;;;;;;;13.20;99.90;;;;;;5092610;28;19934;-68
2023/08/14 08:45:04;;;;;;;;;;;13.10;99.90;;;;;;5092306;28;20002;-66
2023/08/14 08:47:32;;;;;;;;;;;13.10;99.90;;;;;;5092735;28;19908;-67
2023/08/14 08:49:59;;;;;;;;;;;13.10;99.90;;;;;;5085962;28;19961;-70
2023/08/14 08:52:26;;;;;;;;;;;13.20;99.90;;;;;;5092766;28;19915;-68
2023/08/14 08:54:54;;;;;;;;;;;13.10;99.90;;;;;;5092660;28;19936;-69
2023/08/14 08:57:21;;;;;;;;;;;13.10;99.90;;;;;;5092806;28;19912;-67
2023/08/14 08:59:50;;;;;;;;;;;13.00;99.90;;;;;;5092834;28;19919;-67
2023/08/14 09:02:16;;;;;;;;;;;13.00;99.90;;;;;;5091866;28;19908;-67
2023/08/14 09:04:44;;;;;;;;;;;12.90;99.90;;;;;;5092830;28;19954;-68
2023/08/14 09:07:11;;;;;;;;;;;12.90;99.90;;;;;;5096417;28;20276;-67
2023/08/14 09:09:38;;;;;;;;;;;12.90;99.90;;;;;;5096093;28;19915;-67
2023/08/14 09:12:08;;;;;;;;;;;12.80;99.90;;;;;;5096180;28;19912;-68
2023/08/14 09:14:40;;;;;;;;;;;12.80;99.90;;;;;;5096175;28;19904;-68
2023/08/14 09:17:07;;;;;;;;;;;12.80;99.90;;;;;;5096559;28;20382;-68
2023/08/14 09:19:34;;;;;;;;;;;12.80;99.90;;;;;;5095979;28;20369;-67
2023/08/14 09:22:01;;;;;;;;;;;12.80;99.90;;;;;;5095484;28;19973;-67
2023/08/14 09:24:28;;;;;;;;;;;12.80;99.90;;;;;;5095812;28;19908;-67
2023/08/14 09:26:55;;;;;;;;;;;12.80;99.90;;;;;;5098202;28;20396;-66
2023/08/14 09:29:21;;;;;;;;;;;12.80;99.90;;;;;;5095854;28;19904;-67
2023/08/14 09:31:48;;;;;;;;;;;12.70;99.90;;;;;;5096351;28;20004;-67
2023/08/14 09:34:16;;;;;;;;;;;12.70;99.90;;;;;;5096371;28;19914;-67
2023/08/14 09:36:43;;;;;;;;;;;12.70;99.90;;;;;;5096000;28;19908;-68
2023/08/14 09:39:10;;;;;;;;;;;12.70;99.90;;;;;;5095822;28;20361;-69
2023/08/14 09:41:37;;;;;;;;;;;12.70;99.90;;;;;;5095300;28;20300;-69
2023/08/14 09:44:04;;;;;;;;;;;12.70;99.90;;;;;;5095740;28;19904;-68
2023/08/14 09:46:31;;;;;;;;;;;12.70;99.90;;;;;;5096113;28;20398;-68
2023/08/14 09:49:01;;;;;;;;;;;12.70;99.90;;;;;;5100522;28;19992;-71
2023/08/14 09:51:27;;;;;;;;;;;12.70;99.90;;;;;;5095630;28;19951;-68
2023/08/14 09:53:56;;;;;;;;;;;12.70;99.90;;;;;;5096040;28;19911;-68
2023/08/14 09:56:23;;;;;;;;;;;12.60;99.90;;;;;;5094646;28;19943;-67
2023/08/14 09:58:51;;;;;;;;;;;12.70;99.90;;;;;;5097326;28;19916;-67
2023/08/14 10:01:19;;;;;;;;;;;12.60;99.90;;;;;;5096202;28;19957;-67
2023/08/14 10:03:55;;;;;;;;;;;12.60;99.90;;;;;;5095900;28;19904;-67
2023/08/14 10:06:25;;;;;;;;;;;12.60;99.90;;;;;;5095652;28;19903;-66
2023/08/14 10:08:56;;;;;;;;;;;12.60;99.90;;;;;;5095300;28;19904;-68
2023/08/14 10:11:26;;;;;;;;;;;12.50;99.90;;;;;;5095642;28;19904;-69
2023/08/14 10:13:55;;;;;;;;;;;12.50;99.90;;;;;;5095174;28;19904;-67
2023/08/14 10:16:23;;;;;;;;;;;12.50;99.90;;;;;;5095415;28;19911;-67
2023/08/14 10:18:53;;;;;;;;;;;12.50;99.90;;;;;;5095108;28;19930;-68
2023/08/14 10:21:21;;;;;;;;;;;12.50;99.90;;;;;;5095453;28;20003;-68
2023/08/14 10:23:48;;;;;;;;;;;12.60;99.90;;;;;;5095265;28;19904;-69
2023/08/14 10:26:16;;;;;;;;;;;12.50;99.90;;;;;;5095262;28;19904;-67
2023/08/14 10:28:43;;;;;;;;;;;12.50;99.90;;;;;;5093961;28;19904;-68
2023/08/14 10:31:11;;;;;;;;;;;12.40;99.90;;;;;;5095052;28;20392;-67
2023/08/14 10:33:38;;;;;;;;;;;12.40;99.90;;;;;;5095237;28;19994;-66
2023/08/14 10:36:11;;;;;;;;;;;12.40;99.90;;;;;;5095435;28;19911;-66
2023/08/14 10:38:42;;;;;;;;;;;12.40;99.90;;;;;;5095478;28;19907;-68
2023/08/14 10:41:10;;;;;;;;;;;12.40;99.90;;;;;;5094548;28;19908;-67
2023/08/14 10:43:37;;;;;;;;;;;12.40;99.90;;;;;;5094864;28;19956;-66
2023/08/14 10:46:17;;;;;;;;;;;12.40;99.90;;;;;;5095054;28;19904;-68
2023/08/14 10:48:44;;;;;;;;;;;12.40;99.90;;;;;;5095036;28;20321;-72
2023/08/14 10:51:16;;;;;;;;;;;12.30;99.90;;;;;;5094463;28;19965;-67
2023/08/14 10:53:45;;;;;;;;;;;12.30;99.90;;;;;;5094853;28;19957;-69
2023/08/14 10:56:12;;;;;;;;;;;12.30;99.90;;;;;;5097315;28;19919;-67
2023/08/14 10:58:41;;;;;;;;;;;12.30;99.90;;;;;;5094659;28;19947;-67
2023/08/14 11:01:07;;;;;;;;;;;12.30;99.90;;;;;;5094265;28;19982;-66
2023/08/14 11:03:54;;;;;;;;;;;12.30;99.90;;;;;;5094238;28;19904;-67
2023/08/14 11:06:27;;;;;;;;;;;12.30;99.90;;;;;;5094597;28;20333;-67
2023/08/14 11:08:58;;;;;;;;;;;12.30;99.90;;;;;;5094495;28;19908;-67
2023/08/14 11:11:26;;;;;;;;;;;12.30;99.90;;;;;;5094442;28;19904;-70
2023/08/14 11:13:53;;;;;;;;;;;12.20;99.90;;;;;;5094505;28;20268;-68
2023/08/14 11:16:20;;;;;;;;;;;12.20;99.90;;;;;;5094076;28;19912;-68
2023/08/14 11:18:50;;;;;;;;;;;12.20;99.90;;;;;;5093996;28;20437;-69
2023/08/14 11:21:17;;;;;;;;;;;12.10;99.90;;;;;;5093840;28;19927;-71
2023/08/14 11:23:44;;;;;;;;;;;12.20;99.90;;;;;;5092926;28;20380;-70
2023/08/14 11:26:11;;;;;;;;;;;12.10;99.90;;;;;;5093449;28;19912;-70
2023/08/14 11:28:40;;;;;;;;;;;12.10;99.90;;;;;;5093300;28;19939;-67
2023/08/14 11:31:08;;;;;;;;;;;12.10;99.90;;;;;;5094135;28;19915;-66
2023/08/14 11:33:35;;;;;;;;;;;12.20;99.90;;;;;;5093658;28;19904;-66
2023/08/14 11:36:05;;;;;;;;;;;12.20;99.90;;;;;;5093590;28;19914;-67
2023/08/14 11:38:33;;;;;;;;;;;12.20;99.90;;;;;;5093518;28;19973;-66
2023/08/14 11:41:00;;;;;;;;;;;12.20;99.90;;;;;;5093569;28;19911;-67
2023/08/14 11:43:27;;;;;;;;;;;12.20;99.90;;;;;;5093645;28;19904;-69
2023/08/14 11:45:54;;;;;;;;;;;12.10;99.90;;;;;;5093284;28;20003;-66
2023/08/14 11:48:21;;;;;;;;;;;12.20;99.90;;;;;;5093608;28;19904;-69
2023/08/14 11:50:48;;;;;;;;;;;12.10;99.90;;;;;;5093201;28;20354;-67
2023/08/14 11:53:15;;;;;;;;;;;12.10;99.90;;;;;;5093490;28;20381;-67
2023/08/14 11:55:42;;;;;;;;;;;12.10;99.90;;;;;;5093674;28;19904;-67
2023/08/14 11:58:09;;;;;;;;;;;12.10;99.90;;;;;;5092900;28;19955;-66
2023/08/14 12:00:36;;;;;;;;;;;12.00;99.90;;;;;;5093231;28;19908;-68
2023/08/14 12:03:02;;;;;;;;;;;12.00;99.90;;;;;;5093525;28;19957;-66
2023/08/14 12:05:29;;;;;;;;;;;11.90;99.90;;;;;;5093073;28;20383;-67
2023/08/14 12:07:59;;;;;;;;;;;11.90;99.90;;;;;;5093113;28;20269;-71
2023/08/14 12:10:30;;;;;;;;;;;11.90;99.90;;;;;;5093251;28;19912;-69
2023/08/14 12:12:57;;;;;;;;;;;11.90;99.90;;;;;;5093253;28;19908;-67
2023/08/14 12:15:24;;;;;;;;;;;11.90;99.90;;;;;;5093363;28;19904;-69
2023/08/14 12:17:52;;;;;;;;;;;11.80;99.90;;;;;;5092422;28;19908;-68
2023/08/14 12:20:20;;;;;;;;;;;11.80;99.90;;;;;;5093091;28;20003;-67
2023/08/14 12:22:47;;;;;;;;;;;11.80;99.90;;;;;;5093310;28;19957;-68
2023/08/14 12:25:18;;;;;;;;;;;11.80;99.90;;;;;;5093442;28;19904;-68
2023/08/14 12:27:45;;;;;;;;;;;11.80;99.90;;;;;;5092774;28;20311;-69
2023/08/14 12:30:12;;;;;;;;;;;11.80;99.90;;;;;;5092467;28;20026;-68
2023/08/14 12:32:48;;;;;;;;;;;11.70;99.90;;;;;;5091370;28;19939;-66
2023/08/14 12:35:14;;;;;;;;;;;11.70;99.90;;;;;;5092641;28;19908;-66
2023/08/14 12:37:41;;;;;;;;;;;11.60;99.90;;;;;;5092694;28;20008;-66
2023/08/14 12:40:09;;;;;;;;;;;11.60;99.90;;;;;;5093528;28;19912;-67
2023/08/14 12:42:36;;;;;;;;;;;11.60;99.90;;;;;;5096773;28;19904;-67
2023/08/14 12:45:04;;;;;;;;;;;11.60;99.90;;;;;;5096848;28;19990;-67
2023/08/14 12:47:31;;;;;;;;;;;11.50;99.90;;;;;;5096514;28;19951;-68
2023/08/14 12:49:58;;;;;;;;;;;11.50;99.90;;;;;;5097067;28;19960;-67
2023/08/14 12:52:25;;;;;;;;;;;11.50;99.90;;;;;;5096575;28;19904;-66
2023/08/14 12:54:52;;;;;;;;;;;11.40;99.90;;;;;;5096606;28;20041;-69
2023/08/14 12:57:19;;;;;;;;;;;11.40;99.90;;;;;;5096364;28;19919;-67
2023/08/14 12:59:45;;;;;;;;;;;11.30;99.90;;;;;;5096280;28;20018;-66
2023/08/14 13:02:12;;;;;;;;;;;11.20;99.90;;;;;;5111666;28;19908;-69
2023/08/14 13:04:39;;;;;;;;;;;11.20;99.90;;;;;;5109187;27;19927;-68
2023/08/14 13:07:06;;;;;;;;;;;11.20;99.90;;;;;;5096210;28;20273;-65
2023/08/14 13:09:33;;;;;;;;;;;11.20;99.90;;;;;;5096060;28;19976;-67
2023/08/14 13:12:01;;;;;;;;;;;11.20;99.90;;;;;;5096560;28;19914;-68
2023/08/14 13:14:27;;;;;;;;;;;11.30;99.90;;;;;;5096240;28;20434;-66
2023/08/14 13:16:54;;;;;;;;;;;11.20;99.90;;;;;;5096411;28;19908;-67
2023/08/14 13:19:21;;;;;;;;;;;11.30;99.90;;;;;;5095579;28;20002;-66
2023/08/14 13:21:48;;;;;;;;;;;11.30;99.90;;;;;;5095814;28;19908;-66
2023/08/14 13:24:15;;;;;;;;;;;11.30;99.90;;;;;;5096240;28;20017;-66
2023/08/14 13:26:42;;;;;;;;;;;11.30;99.90;;;;;;5095904;28;19908;-68
2023/08/14 13:29:09;;;;;;;;;;;11.30;99.90;;;;;;5096194;28;20285;-69
2023/08/14 13:31:35;;;;;;;;;;;11.20;99.90;;;;;;5096762;28;19935;-71
2023/08/14 13:34:02;;;;;;;;;;;11.20;99.90;;;;;;5096555;28;20399;-70
2023/08/14 13:36:29;;;;;;;;;;;11.10;99.90;;;;;;5095924;28;19968;-69
2023/08/14 13:38:57;;;;;;;;;;;11.10;99.90;;;;;;5094851;28;19912;-67
2023/08/14 13:41:24;;;;;;;;;;;11.00;99.90;;;;;;5095678;28;19957;-70
2023/08/14 13:43:50;;;;;;;;;;;11.00;99.90;;;;;;5094467;28;19952;-70
2023/08/14 13:46:17;;;;;;;;;;;11.00;99.90;;;;;;5096015;28;19915;-67
2023/08/14 13:48:44;;;;;;;;;;;10.90;99.90;;;;;;5095691;28;20439;-69
2023/08/14 13:51:11;;;;;;;;;;;10.90;99.90;;;;;;5094431;28;20349;-66
2023/08/14 13:53:38;;;;;;;;;;;10.80;99.90;;;;;;5095883;28;20414;-68
2023/08/14 13:56:05;;;;;;;;;;;10.70;99.90;;;;;;5095772;28;19910;-68
2023/08/14 13:58:32;;;;;;;;;;;10.60;99.90;;;;;;5096008;28;19912;-67
2023/08/14 14:00:59;;;;;;;;;;;10.50;99.90;;;;;;5095211;28;19965;-69
2023/08/14 14:03:26;;;;;;;;;;;10.50;99.90;;;;;;5094263;28;19912;-67